Terminal Aerodrome Forecast
Issued by NWS

Home | Current Version | Previous Version | Text Only | Print | Product List | Glossary On
Versions: 1 2 3 4 5 6 7 8 9 10 11 12
000
FTAK31 PAFA 201134
TAFAOR
TAF
PAOR 201134Z 2012/2112 VRB03KT 3SM BR FEW070 SCT100
      TEMPO 2012/2016 1/2SM FG BKN004
     FM201800 VRB03KT P6SM VCSH OVC050=

USA.gov is the U.S. government's official web portal to all federal, state and local government web resources and services.